createdAt,value
2022-08-07T00:01:43.937Z,99.90
2022-08-07T00:04:05.869Z,99.90
2022-08-07T00:06:33.979Z,99.90
2022-08-07T00:09:16.788Z,99.90
2022-08-07T00:11:55.442Z,99.90
2022-08-07T00:14:25.260Z,99.90
2022-08-07T00:16:52.907Z,99.90
2022-08-07T00:19:21.739Z,99.90
2022-08-07T00:21:56.245Z,99.90
2022-08-07T00:24:24.533Z,99.90
2022-08-07T00:27:06.465Z,99.90
2022-08-07T00:29:37.207Z,99.90
2022-08-07T00:32:05.921Z,99.90
2022-08-07T00:34:35.542Z,99.90
2022-08-07T00:37:05.026Z,99.90
2022-08-07T00:39:32.999Z,99.90
2022-08-07T00:42:01.973Z,99.90
2022-08-07T00:44:33.019Z,99.90
2022-08-07T00:48:07.662Z,99.90
2022-08-07T00:50:21.132Z,99.90
2022-08-07T00:52:40.699Z,99.90
2022-08-07T00:55:10.748Z,99.90
2022-08-07T00:57:37.958Z,99.90
2022-08-07T01:00:22.144Z,99.90
2022-08-07T01:02:57.242Z,99.90
2022-08-07T01:05:26.392Z,99.90
2022-08-07T01:07:56.910Z,99.90
2022-08-07T01:10:24.235Z,99.90
2022-08-07T01:12:54.096Z,99.90
2022-08-07T01:15:35.873Z,99.90
2022-08-07T01:18:11.196Z,99.90
2022-08-07T01:20:57.404Z,99.90
2022-08-07T01:23:38.559Z,99.90
2022-08-07T01:26:12.097Z,99.90
2022-08-07T01:28:41.759Z,99.90
2022-08-07T01:31:15.483Z,99.90
2022-08-07T01:33:55.625Z,99.90
2022-08-07T01:36:33.971Z,99.90
2022-08-07T01:39:09.775Z,99.90
2022-08-07T01:41:40.940Z,99.90
2022-08-07T01:44:26.191Z,99.90
2022-08-07T01:46:53.410Z,99.90
2022-08-07T01:49:21.414Z,99.90
2022-08-07T01:52:03.255Z,99.90
2022-08-07T01:54:37.494Z,99.90
2022-08-07T01:57:24.718Z,99.90
2022-08-07T02:00:13.329Z,99.90
2022-08-07T02:03:18.803Z,99.90
2022-08-07T02:05:59.357Z,99.90
2022-08-07T02:08:29.472Z,99.90
2022-08-07T02:10:59.521Z,99.90
2022-08-07T02:13:58.168Z,99.90
2022-08-07T02:16:28.372Z,99.90
2022-08-07T02:19:05.363Z,99.90
2022-08-07T02:21:55.505Z,99.90
2022-08-07T02:24:25.291Z,99.90
2022-08-07T02:27:00.125Z,99.90
2022-08-07T02:29:30.579Z,99.90
2022-08-07T02:32:00.147Z,99.90
2022-08-07T02:34:28.800Z,99.90
2022-08-07T02:36:57.977Z,99.90
2022-08-07T02:39:43.132Z,99.90
2022-08-07T02:42:14.849Z,99.90
2022-08-07T02:44:48.249Z,99.90
2022-08-07T02:47:19.435Z,99.90
2022-08-07T02:49:58.428Z,99.90
2022-08-07T02:52:33.013Z,99.90
2022-08-07T02:55:28.047Z,99.90
2022-08-07T02:58:03.614Z,99.90
2022-08-07T03:00:34.112Z,99.90
2022-08-07T03:03:06.097Z,99.90
2022-08-07T03:05:37.226Z,99.90
2022-08-07T03:08:10.274Z,99.90
2022-08-07T03:10:40.742Z,99.90
2022-08-07T03:13:19.434Z,99.90
2022-08-07T03:15:58.377Z,99.90
2022-08-07T03:18:34.618Z,99.90
2022-08-07T03:21:08.173Z,99.90
2022-08-07T03:24:17.603Z,99.90
2022-08-07T03:26:26.701Z,99.90
2022-08-07T03:28:55.528Z,99.90
2022-08-07T03:31:24.452Z,99.90
2022-08-07T03:34:01.684Z,99.90
2022-08-07T03:36:30.725Z,99.90
2022-08-07T03:39:07.439Z,99.90
2022-08-07T03:41:42.126Z,99.90
2022-08-07T03:44:15.237Z,99.90
2022-08-07T03:47:13.248Z,99.90
2022-08-07T03:49:30.421Z,99.90
2022-08-07T03:52:01.471Z,99.90
2022-08-07T03:54:35.980Z,99.90
2022-08-07T03:58:32.707Z,99.90
2022-08-07T04:00:05.249Z,99.90
2022-08-07T04:02:33.101Z,99.90
2022-08-07T04:05:00.093Z,99.90
2022-08-07T04:07:41.655Z,99.90
2022-08-07T04:10:15.708Z,99.90
2022-08-07T04:12:47.970Z,99.90
2022-08-07T04:15:15.984Z,99.90
2022-08-07T04:18:57.425Z,99.90
2022-08-07T04:20:35.324Z,99.90
2022-08-07T04:23:06.140Z,99.90
2022-08-07T04:25:39.164Z,99.90
2022-08-07T04:28:08.228Z,99.90
2022-08-07T04:30:43.600Z,99.90
2022-08-07T04:33:24.275Z,99.90
2022-08-07T04:35:53.969Z,99.90
2022-08-07T04:38:22.132Z,99.90
2022-08-07T04:40:51.680Z,99.90
2022-08-07T04:44:12.335Z,99.90
2022-08-07T04:46:59.622Z,99.90
2022-08-07T04:50:04.189Z,99.90
2022-08-07T04:52:31.765Z,99.90
2022-08-07T04:58:11.763Z,99.90
2022-08-07T04:58:38.737Z,99.90
2022-08-07T05:01:18.306Z,99.90
2022-08-07T05:04:06.483Z,99.90
2022-08-07T05:06:59.139Z,99.90
2022-08-07T05:10:10.961Z,99.90
2022-08-07T05:14:44.362Z,99.90
2022-08-07T05:15:53.643Z,99.90
2022-08-07T05:18:34.198Z,99.90
2022-08-07T05:21:04.640Z,99.90
2022-08-07T05:23:45.809Z,99.90
2022-08-07T05:26:23.938Z,99.90
2022-08-07T05:28:57.755Z,99.90
2022-08-07T05:31:35.319Z,99.90
2022-08-07T05:34:11.234Z,99.90
2022-08-07T05:36:41.950Z,99.90
2022-08-07T05:40:06.030Z,99.90
2022-08-07T05:42:02.291Z,99.90
2022-08-07T05:44:34.586Z,99.90
2022-08-07T05:47:18.357Z,99.90
2022-08-07T05:49:50.577Z,99.90
2022-08-07T05:52:20.120Z,99.90
2022-08-07T05:54:55.321Z,99.90
2022-08-07T05:57:26.631Z,99.90
2022-08-07T06:00:00.283Z,99.90
2022-08-07T06:02:32.925Z,99.90
2022-08-07T06:05:08.038Z,99.90
2022-08-07T06:08:13.536Z,99.90
2022-08-07T06:10:26.397Z,99.90
2022-08-07T06:12:53.669Z,99.90
2022-08-07T06:15:39.055Z,99.90
2022-08-07T06:18:12.195Z,99.90
2022-08-07T06:20:51.165Z,99.90
2022-08-07T06:23:46.294Z,99.90
2022-08-07T06:26:18.040Z,99.90
2022-08-07T06:28:57.915Z,99.90
2022-08-07T06:31:47.065Z,99.90
2022-08-07T06:34:13.348Z,99.90
2022-08-07T06:36:40.169Z,99.90
2022-08-07T06:40:16.702Z,99.90
2022-08-07T06:42:03.553Z,99.90
2022-08-07T06:44:36.525Z,99.90
2022-08-07T06:47:10.577Z,99.90
2022-08-07T06:49:52.465Z,99.90
2022-08-07T06:52:31.672Z,99.90
2022-08-07T06:55:33.101Z,99.90
2022-08-07T06:58:04.511Z,99.90
2022-08-07T07:00:36.655Z,99.90
2022-08-07T07:03:08.868Z,99.90
2022-08-07T07:06:05.474Z,99.90
2022-08-07T07:08:28.786Z,99.90
2022-08-07T07:10:57.085Z,99.90
2022-08-07T07:13:55.723Z,99.90
2022-08-07T07:16:30.898Z,99.90
2022-08-07T07:19:40.997Z,99.90
2022-08-07T07:22:11.900Z,95.70
2022-08-07T07:24:43.133Z,91.20
2022-08-07T07:27:35.243Z,93.70
2022-08-07T07:30:09.836Z,92.40
2022-08-07T07:32:40.809Z,85.90
2022-08-07T07:35:12.007Z,84.20
2022-08-07T07:37:47.246Z,85.50
2022-08-07T07:40:22.042Z,84.70
2022-08-07T07:42:55.509Z,75.90
2022-08-07T07:46:53.642Z,69.70
2022-08-07T07:48:35.101Z,69.20
2022-08-07T07:51:08.124Z,70.80
2022-08-07T07:53:52.077Z,67.80
2022-08-07T07:56:30.265Z,65.60
2022-08-07T07:59:01.718Z,62.50
2022-08-07T08:02:03.731Z,59.10
2022-08-07T08:04:20.235Z,57.80
2022-08-07T08:06:53.907Z,54.70
2022-08-07T08:09:25.204Z,54.50
2022-08-07T08:12:01.644Z,54.10
2022-08-07T08:14:36.111Z,52.30
2022-08-07T08:17:55.676Z,50.90
2022-08-07T08:20:18.117Z,51.10
2022-08-07T08:23:08.313Z,50.60
2022-08-07T08:25:56.889Z,50.30
2022-08-07T08:28:38.622Z,49.50
2022-08-07T08:31:14.735Z,48.70
2022-08-07T08:33:49.558Z,49.80
2022-08-07T08:36:29.782Z,49.50
2022-08-07T08:39:02.019Z,49.90
2022-08-07T08:41:58.776Z,48.80
2022-08-07T08:44:52.896Z,49.30
2022-08-07T08:47:29.551Z,48.60
2022-08-07T08:50:04.925Z,48.70
2022-08-07T08:52:40.734Z,50.10
2022-08-07T08:55:55.556Z,50.30
2022-08-07T08:58:28.845Z,49.60
2022-08-07T09:01:15.904Z,48.20
2022-08-07T09:03:53.025Z,49.40
2022-08-07T09:06:40.201Z,48.60
2022-08-07T09:09:36.449Z,47.90
2022-08-07T09:12:30.955Z,48.50
2022-08-07T09:16:21.702Z,49.50
2022-08-07T09:18:09.918Z,48.50
2022-08-07T09:21:00.760Z,49.30
2022-08-07T09:24:30.927Z,49.20
2022-08-07T09:27:12.071Z,47.80
2022-08-07T09:30:04.787Z,48.40
2022-08-07T09:32:43.712Z,48.10
2022-08-07T09:36:03.506Z,48.10
2022-08-07T09:38:31.420Z,48.20
2022-08-07T09:41:36.393Z,49.10
2022-08-07T09:44:58.696Z,48.30
2022-08-07T09:48:03.732Z,49.00
2022-08-07T09:50:52.227Z,47.80
2022-08-07T09:53:23.310Z,48.40
2022-08-07T09:56:37.634Z,49.10
2022-08-07T09:59:35.855Z,48.20
2022-08-07T10:02:31.652Z,47.20
2022-08-07T10:05:15.150Z,48.50
2022-08-07T10:08:01.252Z,50.30
2022-08-07T10:11:58.963Z,51.00
2022-08-07T10:14:01.632Z,51.20
2022-08-07T10:16:47.807Z,53.40
2022-08-07T10:19:22.749Z,54.60
2022-08-07T10:22:16.119Z,55.90
2022-08-07T10:25:03.355Z,56.30
2022-08-07T10:28:07.863Z,57.20
2022-08-07T10:30:49.508Z,59.10
2022-08-07T10:34:14.583Z,61.10
2022-08-07T10:36:58.364Z,60.70
2022-08-07T10:39:42.144Z,59.60
2022-08-07T10:42:41.212Z,60.90
2022-08-07T10:45:44.031Z,60.70
2022-08-07T10:48:35.569Z,61.50
2022-08-07T10:51:39.177Z,63.50
2022-08-07T10:54:35.341Z,64.10
2022-08-07T10:57:26.293Z,65.30
2022-08-07T11:00:39.662Z,66.80
2022-08-07T11:03:20.250Z,66.60
2022-08-07T11:06:03.024Z,65.40
2022-08-07T11:08:54.539Z,65.60
2022-08-07T11:11:29.654Z,66.80
2022-08-07T11:14:43.718Z,66.00
2022-08-07T11:17:01.294Z,66.20
2022-08-07T11:19:45.441Z,64.50
2022-08-07T11:22:37.215Z,65.10
2022-08-07T11:25:31.097Z,65.30
2022-08-07T11:28:17.691Z,65.20
2022-08-07T11:31:02.780Z,64.90
2022-08-07T11:33:59.580Z,65.80
2022-08-07T11:36:39.283Z,65.10
2022-08-07T11:40:01.108Z,65.30
2022-08-07T11:42:53.020Z,65.80
2022-08-07T11:45:40.658Z,67.20
2022-08-07T11:49:27.630Z,67.30
2022-08-07T11:52:01.841Z,64.80
2022-08-07T11:54:30.027Z,66.10
2022-08-07T11:57:20.604Z,66.20
2022-08-07T12:00:19.084Z,66.60
2022-08-07T12:02:53.695Z,66.80
2022-08-07T12:05:47.252Z,67.00
2022-08-07T12:08:25.711Z,67.20
2022-08-07T12:11:21.102Z,67.30
2022-08-07T12:14:19.009Z,68.10
2022-08-07T12:16:58.638Z,66.80
2022-08-07T12:19:56.366Z,67.20
2022-08-07T12:22:39.125Z,67.40
2022-08-07T12:26:05.528Z,67.40
2022-08-07T12:28:57.582Z,66.80
2022-08-07T12:31:53.291Z,68.60
2022-08-07T12:34:26.687Z,67.70
2022-08-07T12:36:56.327Z,66.30
2022-08-07T12:39:43.663Z,65.00
2022-08-07T12:42:13.509Z,65.80
2022-08-07T12:44:47.481Z,65.50
2022-08-07T12:47:30.996Z,64.90
2022-08-07T12:50:33.819Z,65.00
2022-08-07T12:53:17.384Z,65.00
2022-08-07T12:56:15.280Z,65.20
2022-08-07T12:58:46.736Z,67.10
2022-08-07T13:01:58.713Z,66.40
2022-08-07T13:04:32.530Z,67.10
2022-08-07T13:08:14.363Z,67.50
2022-08-07T13:11:04.769Z,68.30
2022-08-07T13:13:50.549Z,67.20
2022-08-07T13:16:37.345Z,66.60
2022-08-07T13:19:18.229Z,66.50
2022-08-07T13:22:19.311Z,66.30
2022-08-07T13:25:02.897Z,67.30
2022-08-07T13:28:12.433Z,67.70
2022-08-07T13:30:41.165Z,68.00
2022-08-07T13:34:33.648Z,68.60
2022-08-07T13:36:26.114Z,68.00
2022-08-07T13:39:28.566Z,68.30
2022-08-07T13:42:10.130Z,67.60
2022-08-07T13:44:39.523Z,67.20
2022-08-07T13:47:15.842Z,67.20
2022-08-07T13:50:34.309Z,67.70
2022-08-07T13:52:43.154Z,68.00
2022-08-07T13:55:19.149Z,68.20
2022-08-07T13:58:28.127Z,67.90
2022-08-07T14:01:08.782Z,67.70
2022-08-07T14:04:05.350Z,67.40
2022-08-07T14:06:38.595Z,67.20
2022-08-07T14:09:09.828Z,66.30
2022-08-07T14:12:00.152Z,67.40
2022-08-07T14:14:42.798Z,66.20
2022-08-07T14:18:12.069Z,66.20
2022-08-07T14:20:43.337Z,67.70
2022-08-07T14:23:14.385Z,67.20
2022-08-07T14:26:10.060Z,67.10
2022-08-07T14:29:06.048Z,67.30
2022-08-07T14:31:42.250Z,67.40
2022-08-07T14:34:12.301Z,67.60
2022-08-07T14:36:56.259Z,67.50
2022-08-07T14:40:14.647Z,67.40
2022-08-07T14:42:18.874Z,68.30
2022-08-07T14:44:59.931Z,67.10
2022-08-07T14:47:46.320Z,67.00
2022-08-07T14:50:19.137Z,67.10
2022-08-07T14:52:50.402Z,67.20
2022-08-07T14:55:19.967Z,66.50
2022-08-07T14:57:58.716Z,66.00
2022-08-07T15:00:34.848Z,65.40
2022-08-07T15:03:16.609Z,64.30
2022-08-07T15:05:54.825Z,64.70
2022-08-07T15:08:50.246Z,65.10
2022-08-07T15:14:25.270Z,65.10
2022-08-07T15:20:30.512Z,63.80
2022-08-07T15:22:53.609Z,63.30
2022-08-07T15:25:36.925Z,64.40
2022-08-07T15:28:31.217Z,64.30
2022-08-07T15:31:05.810Z,64.20
2022-08-07T15:33:35.994Z,64.20
2022-08-07T15:36:06.649Z,65.20
2022-08-07T15:42:45.066Z,60.50
2022-08-07T15:44:20.632Z,59.50
2022-08-07T15:46:55.244Z,59.40
2022-08-07T15:50:05.039Z,59.80
2022-08-07T15:52:30.687Z,60.50
2022-08-07T15:55:03.438Z,59.90
2022-08-07T15:57:47.593Z,59.30
2022-08-07T16:00:31.079Z,59.70
2022-08-07T16:03:04.542Z,58.30
2022-08-07T16:05:32.377Z,60.20
2022-08-07T16:08:30.424Z,59.30
2022-08-07T16:11:27.013Z,58.10
2022-08-07T16:14:06.999Z,58.60
2022-08-07T16:17:02.434Z,59.20
2022-08-07T16:20:32.913Z,58.20
2022-08-07T16:23:53.799Z,58.40
2022-08-07T16:26:30.891Z,58.10
2022-08-07T16:30:10.694Z,57.60
2022-08-07T16:32:25.465Z,57.30
2022-08-07T16:35:58.932Z,56.60
2022-08-07T16:41:57.097Z,56.50
2022-08-07T16:45:24.674Z,56.50
2022-08-07T16:48:02.674Z,56.50
2022-08-07T16:50:39.199Z,56.20
2022-08-07T16:54:02.715Z,55.60
2022-08-07T16:56:37.479Z,56.10
2022-08-07T16:59:19.419Z,55.20
2022-08-07T17:02:05.055Z,55.30
2022-08-07T17:04:57.711Z,55.30
2022-08-07T17:07:55.088Z,54.90
2022-08-07T17:10:38.319Z,55.20
2022-08-07T17:13:41.630Z,54.80
2022-08-07T17:16:39.161Z,55.20
2022-08-07T17:20:02.033Z,55.20
2022-08-07T17:22:43.545Z,54.90
2022-08-07T17:25:19.252Z,55.00
2022-08-07T17:28:06.623Z,55.40
2022-08-07T17:30:58.528Z,55.40
2022-08-07T17:34:09.021Z,54.90
2022-08-07T17:36:30.792Z,54.90
2022-08-07T17:39:19.946Z,55.10
2022-08-07T17:42:06.996Z,54.70
2022-08-07T17:44:50.361Z,54.90
2022-08-07T17:47:41.920Z,55.00
2022-08-07T17:50:31.734Z,54.30
2022-08-07T17:53:55.732Z,54.30
2022-08-07T17:56:07.156Z,54.80
2022-08-07T17:58:56.890Z,54.70
2022-08-07T18:01:44.572Z,55.10
2022-08-07T18:04:20.263Z,54.90
2022-08-07T18:07:22.636Z,54.10
2022-08-07T18:10:05.897Z,54.60
2022-08-07T18:12:52.767Z,54.30
2022-08-07T18:15:32.618Z,54.30
2022-08-07T18:18:39.640Z,54.60
2022-08-07T18:21:37.319Z,54.80
2022-08-07T18:24:33.556Z,55.20
2022-08-07T18:27:38.540Z,55.20
2022-08-07T18:30:32.691Z,56.50
2022-08-07T18:33:22.389Z,55.70
2022-08-07T18:36:12.627Z,55.90
2022-08-07T18:39:01.686Z,56.20
2022-08-07T18:41:57.433Z,57.20
2022-08-07T18:45:45.112Z,59.20
2022-08-07T18:50:05.485Z,60.60
2022-08-07T18:51:16.967Z,58.60
2022-08-07T18:54:30.979Z,57.00
2022-08-07T18:57:43.276Z,60.30
2022-08-07T19:01:00.685Z,60.20
2022-08-07T19:03:57.060Z,58.40
2022-08-07T19:06:51.552Z,59.50
2022-08-07T19:09:55.577Z,59.70
2022-08-07T19:12:34.011Z,57.60
2022-08-07T19:16:03.792Z,60.50
2022-08-07T19:18:11.641Z,64.50
2022-08-07T19:21:08.985Z,65.20
2022-08-07T19:23:58.110Z,66.80
2022-08-07T19:27:09.084Z,67.40
2022-08-07T19:30:57.029Z,66.50
2022-08-07T19:32:39.516Z,67.00
2022-08-07T19:35:12.093Z,69.50
2022-08-07T19:37:56.929Z,70.00
2022-08-07T19:40:31.407Z,69.60
2022-08-07T19:43:08.569Z,72.10
2022-08-07T19:46:05.878Z,72.00
2022-08-07T19:48:43.985Z,73.50
2022-08-07T19:51:20.434Z,72.70
2022-08-07T19:54:33.412Z,72.00
2022-08-07T19:57:51.207Z,73.40
2022-08-07T19:59:43.596Z,75.50
2022-08-07T20:02:15.748Z,77.70
2022-08-07T20:04:49.724Z,80.10
2022-08-07T20:07:23.795Z,85.30
2022-08-07T20:10:35.653Z,87.20
2022-08-07T20:12:44.855Z,89.30
2022-08-07T20:15:22.392Z,90.20
2022-08-07T20:18:01.485Z,90.50
2022-08-07T20:20:33.380Z,91.10
2022-08-07T20:23:23.219Z,91.90
2022-08-07T20:25:56.028Z,92.70
2022-08-07T20:28:29.647Z,93.70
2022-08-07T20:30:58.172Z,94.40
2022-08-07T20:33:36.607Z,95.20
2022-08-07T20:36:08.862Z,95.70
2022-08-07T20:38:59.818Z,96.20
2022-08-07T20:41:28.461Z,96.80
2022-08-07T20:44:01.920Z,97.30
2022-08-07T20:46:34.585Z,97.80
2022-08-07T20:49:59.820Z,98.80
2022-08-07T20:51:59.312Z,99.70
2022-08-07T20:54:29.777Z,99.90
2022-08-07T20:57:03.044Z,99.90
2022-08-07T21:00:07.466Z,99.90
2022-08-07T21:02:54.539Z,99.90
2022-08-07T21:05:42.790Z,99.90
2022-08-07T21:08:16.479Z,99.90
2022-08-07T21:10:50.758Z,99.90
2022-08-07T21:13:24.631Z,99.90
2022-08-07T21:16:12.276Z,99.90
2022-08-07T21:18:46.247Z,99.90
2022-08-07T21:21:21.387Z,99.90
2022-08-07T21:24:07.395Z,99.90
2022-08-07T21:27:07.019Z,99.90
2022-08-07T21:29:53.121Z,99.90
2022-08-07T21:32:47.657Z,99.90
2022-08-07T21:36:04.136Z,99.90
2022-08-07T21:38:31.331Z,99.90
2022-08-07T21:41:59.767Z,99.90
2022-08-07T21:44:44.760Z,99.90
2022-08-07T21:47:37.854Z,99.90
2022-08-07T21:50:27.531Z,99.90
2022-08-07T21:53:09.433Z,99.90
2022-08-07T21:55:47.843Z,99.90
2022-08-07T21:58:39.073Z,99.90
2022-08-07T22:02:10.088Z,99.90
2022-08-07T22:04:53.562Z,99.90
2022-08-07T22:07:31.729Z,99.90
2022-08-07T22:10:16.613Z,99.90
2022-08-07T22:12:52.732Z,99.90
2022-08-07T22:16:43.510Z,99.90
2022-08-07T22:18:32.828Z,99.90
2022-08-07T22:22:02.691Z,99.90
2022-08-07T22:24:33.032Z,99.90
2022-08-07T22:27:18.769Z,99.90
2022-08-07T22:30:12.800Z,99.90
2022-08-07T22:33:11.146Z,99.90
2022-08-07T22:35:58.311Z,99.90
2022-08-07T22:38:47.937Z,99.90
2022-08-07T22:41:22.046Z,99.90
2022-08-07T22:44:12.985Z,99.90
2022-08-07T22:47:11.417Z,99.90
2022-08-07T22:49:58.608Z,99.90
2022-08-07T22:52:39.838Z,99.90
2022-08-07T22:55:23.494Z,99.90
2022-08-07T22:58:12.150Z,99.90
2022-08-07T23:01:00.028Z,99.90
2022-08-07T23:03:58.967Z,99.90
2022-08-07T23:06:55.316Z,99.90
2022-08-07T23:10:03.396Z,99.90
2022-08-07T23:12:45.410Z,99.90
2022-08-07T23:15:22.113Z,99.90
2022-08-07T23:18:32.022Z,99.90
2022-08-07T23:21:30.238Z,99.90
2022-08-07T23:24:18.925Z,99.90
2022-08-07T23:27:07.753Z,99.90
2022-08-07T23:30:38.838Z,99.90
2022-08-07T23:34:36.093Z,99.90
2022-08-07T23:37:19.039Z,99.90
2022-08-07T23:40:04.222Z,99.90
2022-08-07T23:42:41.617Z,99.90
2022-08-07T23:46:01.539Z,99.90
2022-08-07T23:48:35.822Z,99.90
2022-08-07T23:52:58.345Z,99.90
2022-08-07T23:54:02.864Z,99.90
2022-08-07T23:56:38.874Z,99.90
